createdAt,value
2018-12-07T00:01:36.147Z,80.44
2018-12-07T00:04:05.185Z,80.44
2018-12-07T00:06:33.972Z,80.46
2018-12-07T00:09:03.885Z,80.79
2018-12-07T00:11:32.702Z,80.87
2018-12-07T00:14:01.640Z,81.22
2018-12-07T00:16:30.632Z,80.89
2018-12-07T00:18:59.647Z,80.84
2018-12-07T00:21:28.639Z,80.88
2018-12-07T00:23:57.528Z,80.22
2018-12-07T00:26:26.363Z,80.19
2018-12-07T00:28:55.233Z,80.36
2018-12-07T00:31:24.034Z,80.20
2018-12-07T00:33:53.110Z,79.89
2018-12-07T00:36:21.862Z,79.76
2018-12-07T00:38:50.859Z,79.86
2018-12-07T00:41:19.644Z,80.04
2018-12-07T00:43:48.559Z,79.86
2018-12-07T00:46:17.416Z,79.48
2018-12-07T00:48:46.464Z,79.52
2018-12-07T00:51:15.727Z,79.51
2018-12-07T00:53:44.848Z,79.73
2018-12-07T00:56:14.059Z,80.03
2018-12-07T00:58:42.952Z,80.24
2018-12-07T01:01:12.141Z,80.58
2018-12-07T01:03:41.226Z,80.68
2018-12-07T01:06:10.566Z,80.70
2018-12-07T01:08:39.767Z,80.84
2018-12-07T01:11:08.753Z,80.71
2018-12-07T01:13:37.927Z,80.61
2018-12-07T01:16:07.207Z,80.71
2018-12-07T01:18:36.281Z,80.67
2018-12-07T01:21:05.209Z,80.43
2018-12-07T01:23:34.143Z,80.27
2018-12-07T01:26:03.285Z,80.30
2018-12-07T01:28:32.096Z,80.22
2018-12-07T01:31:01.537Z,79.56
2018-12-07T01:33:30.804Z,79.89
2018-12-07T01:35:59.751Z,80.20
2018-12-07T01:38:28.854Z,80.65
2018-12-07T01:40:58.183Z,80.79
2018-12-07T01:43:27.262Z,81.68
2018-12-07T01:45:56.451Z,81.49
2018-12-07T01:48:25.371Z,81.71
2018-12-07T01:50:54.600Z,81.66
2018-12-07T01:53:23.707Z,81.51
2018-12-07T01:55:52.683Z,81.70
2018-12-07T01:58:21.784Z,82.03
2018-12-07T02:00:50.814Z,81.89
2018-12-07T02:03:20.058Z,82.28
2018-12-07T02:05:49.207Z,82.43
2018-12-07T02:08:18.392Z,81.76
2018-12-07T02:10:47.468Z,81.04
2018-12-07T02:13:16.760Z,80.99
2018-12-07T02:15:46.108Z,81.53
2018-12-07T02:18:15.198Z,81.55
2018-12-07T02:20:43.952Z,81.73
2018-12-07T02:23:13.222Z,81.21
2018-12-07T02:25:42.375Z,81.20
2018-12-07T02:28:11.619Z,81.42
2018-12-07T02:30:40.765Z,81.67
2018-12-07T02:33:09.860Z,81.72
2018-12-07T02:35:39.042Z,81.23
2018-12-07T02:38:08.364Z,80.84
2018-12-07T02:40:37.608Z,80.99
2018-12-07T02:43:06.826Z,81.61
2018-12-07T02:45:35.955Z,81.79
2018-12-07T02:48:04.864Z,81.68
2018-12-07T02:50:34.115Z,81.89
2018-12-07T02:53:03.214Z,81.39
2018-12-07T02:55:32.383Z,81.05
2018-12-07T02:58:01.535Z,81.33
2018-12-07T03:00:30.695Z,81.74
2018-12-07T03:02:59.768Z,82.22
2018-12-07T03:05:28.624Z,81.90
2018-12-07T03:07:57.775Z,80.99
2018-12-07T03:10:26.904Z,81.36
2018-12-07T03:12:55.809Z,81.71
2018-12-07T03:15:25.027Z,81.75
2018-12-07T03:17:54.029Z,81.62
2018-12-07T03:20:23.320Z,81.49
2018-12-07T03:22:52.399Z,81.62
2018-12-07T03:25:21.627Z,81.68
2018-12-07T03:27:50.911Z,81.36
2018-12-07T03:30:20.156Z,80.68
2018-12-07T03:32:49.433Z,80.16
2018-12-07T03:35:18.726Z,80.30
2018-12-07T03:37:47.553Z,80.40
2018-12-07T03:40:16.484Z,80.41
2018-12-07T03:42:45.646Z,80.99
2018-12-07T03:45:14.742Z,81.71
2018-12-07T03:47:43.939Z,81.50
2018-12-07T03:50:12.795Z,81.43
2018-12-07T03:52:41.991Z,81.76
2018-12-07T03:55:11.142Z,82.41
2018-12-07T03:57:40.328Z,82.78
2018-12-07T04:00:09.773Z,82.35
2018-12-07T04:02:39.028Z,82.15
2018-12-07T04:05:08.180Z,81.81
2018-12-07T04:07:37.377Z,82.70
2018-12-07T04:10:06.676Z,82.29
2018-12-07T04:12:35.773Z,81.67
2018-12-07T04:15:05.374Z,81.90
2018-12-07T04:17:34.381Z,82.07
2018-12-07T04:20:03.764Z,82.11
2018-12-07T04:22:32.764Z,82.31
2018-12-07T04:25:01.728Z,82.08
2018-12-07T04:27:30.663Z,82.33
2018-12-07T04:30:10.482Z,82.11
2018-12-07T04:32:39.538Z,82.47
2018-12-07T04:35:08.380Z,82.43
2018-12-07T04:37:37.268Z,82.04
2018-12-07T04:40:06.332Z,81.70
2018-12-07T04:42:35.275Z,82.00
2018-12-07T04:45:04.520Z,82.22
2018-12-07T04:47:33.418Z,82.35
2018-12-07T04:50:03.281Z,82.45
2018-12-07T04:52:32.243Z,82.39
2018-12-07T04:55:01.160Z,82.35
2018-12-07T04:57:30.228Z,82.44
2018-12-07T04:59:59.108Z,81.77
2018-12-07T05:02:27.948Z,81.55
2018-12-07T05:04:56.820Z,81.93
2018-12-07T05:07:25.696Z,82.25
2018-12-07T05:09:54.658Z,82.33
2018-12-07T05:12:23.549Z,81.96
2018-12-07T05:14:52.396Z,82.39
2018-12-07T05:17:21.657Z,82.59
2018-12-07T05:19:50.728Z,82.75
2018-12-07T05:22:19.909Z,81.72
2018-12-07T05:24:49.126Z,81.86
2018-12-07T05:27:18.370Z,82.03
2018-12-07T05:29:47.480Z,82.18
2018-12-07T05:32:16.678Z,82.85
2018-12-07T05:34:45.728Z,82.92
2018-12-07T05:37:14.751Z,83.09
2018-12-07T05:39:43.610Z,82.84
2018-12-07T05:42:12.478Z,82.99
2018-12-07T05:44:41.803Z,82.84
2018-12-07T05:47:10.883Z,83.22
2018-12-07T05:49:39.771Z,83.25
2018-12-07T05:52:08.557Z,83.47
2018-12-07T05:54:37.664Z,83.38
2018-12-07T05:57:06.841Z,83.25
2018-12-07T05:59:36.119Z,82.01
2018-12-07T06:02:05.238Z,81.25
2018-12-07T06:04:34.123Z,80.48
2018-12-07T06:07:03.319Z,80.49
2018-12-07T06:09:33.056Z,81.21
2018-12-07T06:12:02.152Z,80.69
2018-12-07T06:14:31.369Z,80.46
2018-12-07T06:17:00.376Z,80.84
2018-12-07T06:19:29.253Z,81.06
2018-12-07T06:21:58.200Z,81.29
2018-12-07T06:24:26.986Z,81.04
2018-12-07T06:26:55.808Z,80.44
2018-12-07T06:29:24.781Z,80.70
2018-12-07T06:31:53.776Z,80.67
2018-12-07T06:34:23.064Z,81.04
2018-12-07T06:36:52.271Z,81.13
2018-12-07T06:39:21.164Z,81.38
2018-12-07T06:41:50.509Z,81.85
2018-12-07T06:44:19.265Z,80.83
2018-12-07T06:46:48.188Z,80.55
2018-12-07T06:49:17.132Z,81.11
2018-12-07T06:51:46.160Z,80.99
2018-12-07T06:54:15.014Z,80.67
2018-12-07T06:56:43.954Z,80.70
2018-12-07T06:59:12.818Z,80.11
2018-12-07T07:01:42.080Z,79.28
2018-12-07T07:04:10.987Z,79.14
2018-12-07T07:06:40.138Z,79.57
2018-12-07T07:09:09.618Z,79.85
2018-12-07T07:11:38.925Z,80.23
2018-12-07T07:14:07.980Z,78.96
2018-12-07T07:16:37.162Z,77.59
2018-12-07T07:19:06.405Z,76.95
2018-12-07T07:21:35.552Z,76.40
2018-12-07T07:24:04.792Z,76.09
2018-12-07T07:26:34.038Z,75.75
2018-12-07T07:29:03.190Z,75.59
2018-12-07T07:31:32.096Z,75.41
2018-12-07T07:34:01.143Z,74.99
2018-12-07T07:36:30.032Z,74.23
2018-12-07T07:38:58.922Z,73.90
2018-12-07T07:41:27.892Z,73.24
2018-12-07T07:43:56.823Z,72.83
2018-12-07T07:46:25.795Z,72.97
2018-12-07T07:48:54.686Z,72.94
2018-12-07T07:51:23.677Z,73.34
2018-12-07T07:53:52.497Z,73.62
2018-12-07T07:56:21.562Z,73.65
2018-12-07T07:58:50.484Z,73.15
2018-12-07T08:01:19.401Z,72.71
2018-12-07T08:03:48.269Z,71.76
2018-12-07T08:06:17.223Z,71.40
2018-12-07T08:08:46.195Z,70.84
2018-12-07T08:11:15.083Z,70.33
2018-12-07T08:13:43.890Z,69.43
2018-12-07T08:16:12.987Z,68.89
2018-12-07T08:18:41.899Z,69.11
2018-12-07T08:21:10.867Z,67.95
2018-12-07T08:23:39.724Z,66.45
2018-12-07T08:26:08.749Z,65.02
2018-12-07T08:28:37.585Z,64.90
2018-12-07T08:31:06.531Z,64.91
2018-12-07T08:33:35.522Z,64.20
2018-12-07T08:36:04.456Z,62.94
2018-12-07T08:38:33.404Z,60.73
2018-12-07T08:41:02.319Z,59.65
2018-12-07T08:43:31.182Z,57.62
2018-12-07T08:46:00.103Z,56.02
2018-12-07T08:48:29.066Z,54.52
2018-12-07T08:50:57.984Z,53.38
2018-12-07T08:53:26.862Z,53.16
2018-12-07T08:55:55.722Z,53.06
2018-12-07T08:58:24.520Z,52.04
2018-12-07T09:00:53.411Z,50.94
2018-12-07T09:03:22.239Z,49.72
2018-12-07T09:05:51.232Z,47.48
2018-12-07T09:08:20.132Z,46.70
2018-12-07T09:10:49.116Z,47.49
2018-12-07T09:13:17.892Z,46.25
2018-12-07T09:15:46.710Z,45.39
2018-12-07T09:18:15.515Z,47.70
2018-12-07T09:20:44.368Z,48.52
2018-12-07T09:23:13.318Z,49.04
2018-12-07T09:25:42.206Z,48.45
2018-12-07T09:28:11.069Z,49.41
2018-12-07T09:30:41.226Z,49.07
2018-12-07T09:33:10.317Z,49.54
2018-12-07T09:35:39.407Z,48.76
2018-12-07T09:38:13.185Z,47.68
2018-12-07T09:40:39.234Z,46.11
2018-12-07T09:43:08.082Z,45.48
2018-12-07T09:45:36.860Z,44.38
2018-12-07T09:48:05.719Z,45.84
2018-12-07T09:50:34.689Z,47.95
2018-12-07T09:53:03.552Z,46.25
2018-12-07T09:55:32.379Z,45.13
2018-12-07T09:58:01.200Z,44.89
2018-12-07T10:00:29.981Z,44.85
2018-12-07T10:02:58.784Z,44.52
2018-12-07T10:05:27.721Z,43.08
2018-12-07T10:07:56.614Z,42.46
2018-12-07T10:10:25.579Z,42.15
2018-12-07T10:12:54.494Z,41.62
2018-12-07T10:15:23.387Z,41.45
2018-12-07T10:17:52.220Z,40.85
2018-12-07T10:20:21.259Z,40.37
2018-12-07T10:22:50.159Z,38.71
2018-12-07T10:25:19.117Z,38.14
2018-12-07T10:27:48.044Z,37.75
2018-12-07T10:30:16.851Z,37.59
2018-12-07T10:32:45.720Z,37.52
2018-12-07T10:35:14.606Z,36.30
2018-12-07T10:37:43.700Z,36.09
2018-12-07T10:40:12.585Z,35.75
2018-12-07T10:42:41.583Z,35.85
2018-12-07T10:45:10.561Z,35.49
2018-12-07T10:47:39.568Z,33.51
2018-12-07T10:50:08.495Z,31.88
2018-12-07T10:52:37.449Z,32.67
2018-12-07T10:55:08.068Z,31.13
2018-12-07T10:57:37.416Z,32.97
2018-12-07T11:00:09.064Z,34.45
2018-12-07T11:02:43.323Z,33.60
2018-12-07T11:05:17.348Z,31.68
2018-12-07T11:07:51.551Z,30.41
2018-12-07T11:10:25.819Z,29.36
2018-12-07T11:12:59.936Z,27.06
2018-12-07T11:15:34.118Z,25.27
2018-12-07T11:18:08.293Z,24.73
2018-12-07T11:20:42.207Z,24.01
2018-12-07T11:23:16.454Z,24.05
2018-12-07T11:25:50.477Z,23.88
2018-12-07T11:28:24.412Z,22.46
2018-12-07T11:30:58.668Z,22.46
2018-12-07T11:33:31.980Z,22.42
2018-12-07T11:50:36.073Z,31.09
2018-12-07T11:53:05.214Z,31.36
2018-12-07T11:55:34.381Z,33.10
2018-12-07T11:58:03.570Z,33.35
2018-12-07T12:00:32.467Z,34.92
2018-12-07T12:03:01.564Z,35.10
2018-12-07T12:05:30.521Z,35.99
2018-12-07T12:07:59.585Z,37.24
2018-12-07T12:10:28.807Z,38.00
2018-12-07T12:12:57.956Z,38.21
2018-12-07T12:15:27.162Z,38.20
2018-12-07T12:17:55.923Z,38.67
2018-12-07T12:20:25.000Z,39.12
2018-12-07T12:22:54.150Z,40.41
2018-12-07T12:25:23.196Z,41.17
2018-12-07T12:27:52.234Z,41.35
2018-12-07T12:30:21.420Z,41.96
2018-12-07T12:32:50.240Z,42.26
2018-12-07T12:35:19.460Z,43.44
2018-12-07T12:37:48.516Z,45.00
2018-12-07T12:40:17.466Z,46.30
2018-12-07T12:42:46.591Z,46.05
2018-12-07T12:45:15.704Z,46.47
2018-12-07T12:47:44.879Z,45.47
2018-12-07T12:50:19.156Z,48.02
2018-12-07T12:52:48.156Z,48.07
2018-12-07T12:55:17.054Z,47.80
2018-12-07T12:57:45.895Z,46.94
2018-12-07T13:00:14.934Z,48.05
2018-12-07T13:02:43.776Z,48.90
2018-12-07T13:05:12.639Z,50.08
2018-12-07T13:07:41.632Z,51.00
2018-12-07T13:10:10.590Z,52.08
2018-12-07T13:12:39.400Z,52.52
2018-12-07T13:15:08.563Z,53.95
2018-12-07T13:17:37.471Z,54.13
2018-12-07T13:20:07.589Z,54.18
2018-12-07T13:22:36.563Z,53.98
2018-12-07T13:25:06.091Z,53.61
2018-12-07T13:27:34.920Z,53.64
2018-12-07T13:30:04.161Z,54.42
2018-12-07T13:32:33.045Z,54.72
2018-12-07T13:35:01.851Z,54.67
2018-12-07T13:37:30.828Z,54.87
2018-12-07T13:39:59.819Z,54.33
2018-12-07T13:42:28.949Z,54.96
2018-12-07T13:44:58.064Z,54.78
2018-12-07T13:47:27.326Z,54.28
2018-12-07T13:50:01.839Z,55.40
2018-12-07T13:52:31.073Z,55.96
2018-12-07T13:55:00.386Z,55.75
2018-12-07T13:57:29.830Z,55.27
2018-12-07T13:59:58.986Z,56.63
2018-12-07T14:02:28.216Z,56.58
2018-12-07T14:04:57.574Z,56.42
2018-12-07T14:07:26.727Z,56.67
2018-12-07T14:09:56.024Z,57.28
2018-12-07T14:12:25.282Z,57.63
2018-12-07T14:14:54.712Z,57.85
2018-12-07T14:17:23.924Z,58.22
2018-12-07T14:19:53.394Z,57.84
2018-12-07T14:22:22.658Z,58.34
2018-12-07T14:24:52.023Z,59.20
2018-12-07T14:27:21.311Z,59.37
2018-12-07T14:29:50.590Z,59.92
2018-12-07T14:32:19.942Z,59.95
2018-12-07T14:34:49.541Z,59.97
2018-12-07T14:37:18.772Z,59.94
2018-12-07T14:39:48.130Z,60.40
2018-12-07T14:42:17.374Z,60.35
2018-12-07T14:44:46.512Z,60.20
2018-12-07T14:47:15.713Z,60.31
2018-12-07T14:49:45.008Z,60.49
2018-12-07T14:52:14.341Z,60.76
2018-12-07T14:54:43.739Z,60.53
2018-12-07T14:57:13.039Z,61.19
2018-12-07T14:59:42.192Z,61.41
2018-12-07T15:02:11.429Z,61.29
2018-12-07T15:04:40.741Z,61.66
2018-12-07T15:07:09.897Z,61.87
2018-12-07T15:09:39.293Z,62.47
2018-12-07T15:12:08.442Z,63.62
2018-12-07T15:14:37.652Z,63.80
2018-12-07T15:17:06.669Z,63.38
2018-12-07T15:19:36.019Z,64.13
2018-12-07T15:22:04.978Z,63.86
2018-12-07T15:24:34.285Z,64.50
2018-12-07T15:27:03.690Z,64.76
2018-12-07T15:29:33.198Z,64.69
2018-12-07T15:32:02.587Z,64.99
2018-12-07T15:34:31.930Z,65.43
2018-12-07T15:37:01.570Z,65.74
2018-12-07T15:39:31.006Z,66.62
2018-12-07T15:42:00.356Z,66.81
2018-12-07T15:44:29.254Z,66.95
2018-12-07T15:46:58.588Z,68.00
2018-12-07T15:49:28.180Z,67.48
2018-12-07T15:51:57.177Z,68.05
2018-12-07T15:54:26.288Z,68.35
2018-12-07T15:56:55.276Z,68.50
2018-12-07T15:59:24.305Z,68.99
2018-12-07T16:01:53.343Z,69.51
2018-12-07T16:04:22.629Z,69.88
2018-12-07T16:06:51.815Z,69.98
2018-12-07T16:09:20.834Z,70.40
2018-12-07T16:11:49.802Z,70.01
2018-12-07T16:14:18.809Z,70.13
2018-12-07T16:16:47.737Z,71.24
2018-12-07T16:19:16.752Z,71.94
2018-12-07T16:21:46.116Z,72.00
2018-12-07T16:24:15.312Z,72.10
2018-12-07T16:26:44.746Z,72.30
2018-12-07T16:29:13.914Z,71.80
2018-12-07T16:31:43.340Z,72.28
2018-12-07T16:34:12.591Z,72.36
2018-12-07T16:36:41.809Z,72.82
2018-12-07T16:39:10.939Z,72.96
2018-12-07T16:41:40.149Z,72.99
2018-12-07T16:44:09.522Z,72.96
2018-12-07T16:46:38.617Z,73.08
2018-12-07T16:49:07.805Z,73.09
2018-12-07T16:51:37.059Z,73.11
2018-12-07T16:54:06.449Z,73.22
2018-12-07T16:56:35.607Z,73.22
2018-12-07T16:59:04.903Z,73.17
2018-12-07T17:01:34.016Z,72.82
2018-12-07T17:04:03.227Z,72.42
2018-12-07T17:06:32.681Z,72.54
2018-12-07T17:09:02.050Z,72.83
2018-12-07T17:11:32.396Z,72.93
2018-12-07T17:14:01.713Z,72.06
2018-12-07T17:16:30.869Z,71.90
2018-12-07T17:18:59.950Z,72.24
2018-12-07T17:21:30.123Z,72.82
2018-12-07T17:23:59.212Z,73.25
2018-12-07T17:26:28.461Z,72.51
2018-12-07T17:28:57.710Z,72.71
2018-12-07T17:31:26.904Z,72.37
2018-12-07T17:33:56.268Z,72.02
2018-12-07T17:36:25.780Z,72.10
2018-12-07T17:38:55.210Z,72.67
2018-12-07T17:41:25.251Z,72.73
2018-12-07T17:43:54.283Z,72.72
2018-12-07T17:46:24.986Z,72.70
2018-12-07T17:48:54.079Z,72.90
2018-12-07T17:51:25.250Z,73.12
2018-12-07T17:53:54.571Z,72.77
2018-12-07T17:56:24.003Z,72.60
2018-12-07T17:58:54.657Z,73.06
2018-12-07T18:01:23.654Z,73.11
2018-12-07T18:03:52.528Z,72.54
2018-12-07T18:06:21.693Z,72.47
2018-12-07T18:08:51.097Z,72.13
2018-12-07T18:11:20.153Z,72.39
2018-12-07T18:13:49.339Z,72.33
2018-12-07T18:16:18.469Z,72.73
2018-12-07T18:18:47.506Z,72.82
2018-12-07T18:21:16.724Z,73.19
2018-12-07T18:23:45.680Z,73.91
2018-12-07T18:26:14.629Z,74.22
2018-12-07T18:28:43.837Z,74.54
2018-12-07T18:31:12.887Z,74.77
2018-12-07T18:33:41.934Z,74.75
2018-12-07T18:36:11.115Z,75.07
2018-12-07T18:38:40.558Z,75.34
2018-12-07T18:41:09.690Z,75.56
2018-12-07T18:43:38.617Z,75.81
2018-12-07T18:46:08.011Z,76.05
2018-12-07T18:48:37.347Z,75.65
2018-12-07T18:51:07.066Z,75.40
2018-12-07T18:53:36.407Z,75.72
2018-12-07T18:56:05.765Z,75.60
2018-12-07T18:58:35.129Z,75.43
2018-12-07T19:01:04.679Z,75.64
2018-12-07T19:03:33.926Z,75.90
2018-12-07T19:06:03.373Z,76.23
2018-12-07T19:08:32.809Z,76.40
2018-12-07T19:11:02.384Z,76.56
2018-12-07T19:13:31.645Z,76.96
2018-12-07T19:16:01.117Z,76.89
2018-12-07T19:18:30.225Z,76.83
2018-12-07T19:20:59.427Z,76.87
2018-12-07T19:23:28.511Z,77.04
2018-12-07T19:25:57.667Z,77.48
2018-12-07T19:28:26.736Z,77.43
2018-12-07T19:30:56.374Z,77.31
2018-12-07T19:33:25.853Z,77.41
2018-12-07T19:35:55.386Z,77.58
2018-12-07T19:38:24.694Z,77.48
2018-12-07T19:40:54.260Z,77.35
2018-12-07T19:43:23.796Z,77.71
2018-12-07T19:45:53.313Z,77.86
2018-12-07T19:48:22.660Z,77.98
2018-12-07T19:50:51.876Z,78.26
2018-12-07T19:53:21.485Z,78.24
2018-12-07T19:55:51.059Z,78.71
2018-12-07T19:58:19.926Z,78.88
2018-12-07T20:00:48.871Z,78.60
2018-12-07T20:03:17.977Z,78.94
2018-12-07T20:05:47.031Z,78.17
2018-12-07T20:08:16.231Z,77.73
2018-12-07T20:10:45.376Z,77.88
2018-12-07T20:13:14.773Z,78.15
2018-12-07T20:15:44.194Z,77.81
2018-12-07T20:18:13.588Z,77.46
2018-12-07T20:20:42.889Z,77.32
2018-12-07T20:23:12.093Z,77.98
2018-12-07T20:25:41.234Z,78.47
2018-12-07T20:28:10.776Z,77.91
2018-12-07T20:30:40.420Z,77.77
2018-12-07T20:33:09.363Z,77.83
2018-12-07T20:35:38.570Z,77.98
2018-12-07T20:38:07.712Z,77.75
2018-12-07T20:40:36.625Z,78.11
2018-12-07T20:43:05.743Z,77.68
2018-12-07T20:45:34.962Z,77.67
2018-12-07T20:48:04.090Z,77.56
2018-12-07T20:50:33.616Z,77.72
2018-12-07T20:53:02.946Z,77.85
2018-12-07T20:55:32.345Z,77.72
2018-12-07T20:58:03.638Z,77.46
2018-12-07T21:00:32.660Z,77.38
2018-12-07T21:03:01.704Z,77.45
2018-12-07T21:07:51.473Z,77.75
2018-12-07T21:10:41.207Z,78.33
2018-12-07T21:17:19.157Z,78.03
2018-12-07T21:19:53.312Z,78.36
2018-12-07T21:22:22.691Z,78.43
2018-12-07T21:24:52.039Z,78.94
2018-12-07T21:27:21.202Z,79.11
2018-12-07T21:30:59.620Z,78.72
2018-12-07T21:33:53.150Z,78.87
2018-12-07T21:36:35.749Z,79.21
2018-12-07T21:39:09.590Z,79.56
2018-12-07T21:41:38.438Z,79.15
2018-12-07T21:44:07.511Z,79.04
2018-12-07T21:46:36.830Z,79.21
2018-12-07T21:49:05.897Z,78.86
2018-12-07T21:51:49.775Z,79.24
2018-12-07T21:54:18.910Z,79.07
2018-12-07T21:56:48.185Z,78.99
2018-12-07T21:59:17.530Z,79.44
2018-12-07T22:01:46.662Z,79.36
2018-12-07T22:04:15.877Z,78.88
2018-12-07T22:06:44.802Z,79.07
2018-12-07T22:09:14.243Z,79.52
2018-12-07T22:11:43.529Z,79.87
2018-12-07T22:14:12.455Z,79.54
2018-12-07T22:16:41.282Z,79.13
2018-12-07T22:19:10.329Z,79.42
2018-12-07T22:21:39.700Z,79.51
2018-12-07T22:24:08.966Z,79.83
2018-12-07T22:26:37.991Z,79.64
2018-12-07T22:29:07.209Z,79.69
2018-12-07T22:31:36.490Z,79.83
2018-12-07T22:34:05.701Z,80.14
2018-12-07T22:36:35.055Z,79.88
2018-12-07T22:39:05.273Z,79.69
2018-12-07T22:41:34.373Z,79.61
2018-12-07T22:44:03.765Z,79.71
2018-12-07T22:46:32.985Z,80.04
2018-12-07T22:49:02.224Z,79.57
2018-12-07T22:51:31.501Z,79.45
2018-12-07T22:54:00.569Z,79.57
2018-12-07T22:56:29.417Z,80.02
2018-12-07T22:58:58.246Z,80.24
2018-12-07T23:01:27.648Z,80.04
2018-12-07T23:03:56.656Z,80.15
2018-12-07T23:06:25.612Z,80.16
2018-12-07T23:08:54.364Z,79.42
2018-12-07T23:11:23.180Z,79.12
2018-12-07T23:13:52.084Z,79.85
2018-12-07T23:16:20.964Z,80.00
2018-12-07T23:18:49.908Z,79.79
2018-12-07T23:21:18.743Z,79.86
2018-12-07T23:23:47.689Z,79.72
2018-12-07T23:26:16.551Z,79.64
2018-12-07T23:28:45.360Z,80.02
2018-12-07T23:31:14.196Z,79.68
2018-12-07T23:33:43.114Z,79.70
2018-12-07T23:36:11.900Z,80.04
2018-12-07T23:38:40.735Z,80.07
2018-12-07T23:41:09.607Z,79.51
2018-12-07T23:43:38.391Z,79.83
2018-12-07T23:46:07.358Z,79.51
2018-12-07T23:48:36.317Z,79.61
2018-12-07T23:51:05.318Z,79.81
2018-12-07T23:53:34.312Z,79.75
2018-12-07T23:56:03.209Z,79.86
2018-12-07T23:58:32.024Z,80.26
